Volga-4011 — UBNJ — position and weather

sailwx.info

Track history (hours):
 
Tides and Currents Weather Stations Pressure Air Temp Water Temp Dewpoint Dewpoint Depression Visibility Wind Speed Wind Dir Waves Ship Positions

Volga-4011

Last reported at 2016-Apr-26 10:07 UTC. Time now 2016-Apr-29 08:13 UTC.
Position N 31°07' E 121°56'.

Length 140 m; draft 3.6 m.

Type: Cargo ship. MMSI: 273358200.

Date/timePositionNaut miles runAvg speedWind from/ knotsBaromVisibWave heightAir tempDewpointWater temp
2016-Apr-26 10:07N 31°07' E 121°56'711.9
2016-Apr-26 09:33N 31°12' E 121°50'1110.5
2016-Apr-26 08:29N 31°20' E 121°41'8 9.1
2016-Apr-26 07:33N 31°24' E 121°32'7 7.2
2016-Apr-26 06:33N 31°29' E 121°26'8 7.6
2016-Apr-26 05:34N 31°33' E 121°19'1010.1
2016-Apr-26 04:33N 31°41' E 121°11'2 1.8
2016-Apr-26 03:32N 31°42' E 121°09'0 0.0
2016-Apr-26 02:30N 31°42' E 121°09'0 0.0
2016-Apr-26 01:33N 31°42' E 121°09'0 0.0
2016-Apr-26 00:28N 31°42' E 121°09'0 0.0
2016-Apr-25 23:32N 31°42' E 121°09'0 0.0
2016-Apr-25 22:29N 31°42' E 121°09'0 0.0
2016-Apr-25 21:15N 31°42' E 121°09'0 0.0
2016-Apr-25 20:31N 31°42' E 121°09'0 0.0
2016-Apr-25 19:31N 31°42' E 121°09'0 0.0
2016-Apr-25 18:32N 31°42' E 121°09'0 0.0
2016-Apr-25 17:33N 31°42' E 121°09'0 0.0
2016-Apr-25 16:33N 31°42' E 121°09'0 0.0
2016-Apr-25 15:22N 31°42' E 121°09'0 0.0
2016-Apr-25 14:23N 31°42' E 121°09'0 0.0
2016-Apr-25 13:12N 31°42' E 121°09'0 0.0
2016-Apr-25 12:33N 31°42' E 121°09'0 0.0
2016-Apr-25 11:31N 31°42' E 121°09'0 0.0
2016-Apr-25 10:31N 31°42' E 121°09'0 0.0
2016-Apr-25 09:26N 31°42' E 121°09'0 0.0
2016-Apr-25 08:03N 31°42' E 121°09'0 0.0
2016-Apr-25 07:30N 31°42' E 121°09'0 0.0
2016-Apr-25 06:28N 31°42' E 121°09'0 0.0
2016-Apr-25 05:29N 31°42' E 121°09'0 0.0
2016-Apr-25 04:17N 31°42' E 121°09'0 0.0
2016-Apr-25 03:30N 31°42' E 121°09'0 0.0
2016-Apr-25 02:30N 31°42' E 121°09'2 2.2
2016-Apr-25 01:33N 31°41' E 121°11'4 4.0
2016-Apr-25 00:32N 31°39' E 121°15'0 0.0
2016-Apr-24 23:32N 31°39' E 121°15'0 0.0
2016-Apr-24 22:33N 31°39' E 121°15'0 0.0
2016-Apr-24 21:31N 31°39' E 121°15'0 0.2
2016-Apr-24 20:28N 31°39' E 121°15'0 0.1
2016-Apr-24 19:32N 31°39' E 121°15'0 0.0
2016-Apr-24 18:33N 31°39' E 121°15'0 0.0
2016-Apr-24 17:30N 31°39' E 121°15'0 0.0
2016-Apr-24 16:31N 31°39' E 121°15'0 0.2
2016-Apr-24 15:32N 31°39' E 121°15'0 0.0
2016-Apr-24 14:32N 31°39' E 121°15'0 0.0
2016-Apr-24 13:33N 31°39' E 121°15'0 0.0
2016-Apr-24 12:33N 31°39' E 121°15'0 0.0
2016-Apr-24 11:31N 31°39' E 121°15'0 0.0
2016-Apr-24 10:32N 31°39' E 121°15'0 0.0
2016-Apr-24 09:29N 31°39' E 121°15'0 0.0
2016-Apr-24 08:33N 31°39' E 121°15'0 0.1
2016-Apr-24 07:31N 31°39' E 121°15'0 0.0
2016-Apr-24 06:30N 31°39' E 121°15'0 0.0
2016-Apr-24 05:31N 31°39' E 121°15'0 0.0
2016-Apr-24 04:32N 31°39' E 121°15'0 0.2
2016-Apr-24 03:32N 31°39' E 121°15'0 0.0
2016-Apr-24 02:33N 31°39' E 121°15'0 0.0
2016-Apr-24 01:33N 31°39' E 121°15'0 0.0
2016-Apr-24 00:28N 31°39' E 121°15'0 0.0
2016-Apr-23 23:32N 31°39' E 121°15'0 0.0
2016-Apr-23 22:32N 31°39' E 121°15'0 0.0
2016-Apr-23 21:30N 31°39' E 121°15'0 0.1
2016-Apr-23 20:31N 31°39' E 121°15'0 0.1
2016-Apr-23 19:31N 31°39' E 121°15'0 0.0
2016-Apr-23 18:32N 31°39' E 121°15'0 0.0
2016-Apr-23 17:33N 31°39' E 121°15'0 0.0
2016-Apr-23 16:33N 31°39' E 121°15'0 0.1
2016-Apr-23 15:31N 31°39' E 121°15'0 0.1
2016-Apr-23 14:26N 31°39' E 121°15'0 0.0
2016-Apr-23 13:29N 31°39' E 121°15'0 0.0
2016-Apr-23 12:33N 31°39' E 121°15'0 0.0
2016-Apr-23 11:31N 31°39' E 121°15'0 0.0
2016-Apr-23 10:31N 31°39' E 121°15'0 0.1
2016-Apr-23 09:32N 31°39' E 121°15'0 0.1
2016-Apr-23 08:27N 31°39' E 121°15'0 0.1
2016-Apr-23 07:33N 31°39' E 121°15'0 0.0
2016-Apr-23 06:28N 31°39' E 121°15'0 0.0
2016-Apr-23 05:31N 31°39' E 121°15'0 0.0
2016-Apr-23 04:26N 31°39' E 121°15'0 0.0
2016-Apr-23 03:27N 31°39' E 121°15'0 0.2
2016-Apr-23 02:33N 31°39' E 121°15'0 0.0
2016-Apr-23 01:31N 31°39' E 121°15'0 0.0
2016-Apr-23 00:32N 31°39' E 121°15'0 0.0
2016-Apr-22 23:32N 31°39' E 121°15'0 0.0
2016-Apr-22 22:33N 31°39' E 121°15'0 0.0
2016-Apr-22 21:31N 31°39' E 121°15'0 0.2
2016-Apr-22 20:28N 31°39' E 121°15'0 0.1
2016-Apr-22 19:29N 31°39' E 121°15'0 0.0
2016-Apr-22 18:33N 31°39' E 121°15'0 0.0
2016-Apr-22 17:30N 31°39' E 121°15'0 0.0
2016-Apr-22 16:31N 31°39' E 121°15'1 0.8
2016-Apr-22 15:33N 31°39' E 121°14'5 4.2
2016-Apr-22 14:16N 31°42' E 121°09'0 0.0
2016-Apr-22 13:32N 31°42' E 121°09'0 0.0
2016-Apr-22 12:33N 31°42' E 121°09'0 0.0
2016-Apr-22 11:33N 31°42' E 121°09'0 0.0
2016-Apr-22 10:28N 31°42' E 121°09'0 0.0
2016-Apr-22 09:26N 31°42' E 121°09'0 0.0
2016-Apr-22 08:29N 31°42' E 121°09'0 0.0
2016-Apr-22 07:30N 31°42' E 121°09'0 0.0
2016-Apr-22 06:31N 31°42' E 121°09'0 0.0
2016-Apr-22 05:31N 31°42' E 121°09'0 0.0
2016-Apr-22 04:32N 31°42' E 121°09'0 0.0
2016-Apr-22 02:31N 31°42' E 121°09'0 0.0
2016-Apr-21 23:33N 31°42' E 121°09'0 0.0
2016-Apr-21 22:25N 31°42' E 121°09'0 0.0
2016-Apr-21 21:20N 31°42' E 121°09'0 0.0
2016-Apr-21 20:15N 31°42' E 121°09'0 0.0
2016-Apr-21 17:28N 31°42' E 121°09'0 0.0
2016-Apr-21 16:23N 31°42' E 121°09'0 0.0
2016-Apr-21 15:33N 31°42' E 121°09'2 1.6
2016-Apr-21 14:33N 31°41' E 121°11'4 3.5
2016-Apr-21 13:20N 31°39' E 121°15'0 0.0
2016-Apr-21 12:14N 31°39' E 121°15'0 0.0
2016-Apr-21 11:21N 31°39' E 121°15'0 0.0
2016-Apr-21 10:31N 31°39' E 121°15'0 0.0
2016-Apr-21 09:07N 31°39' E 121°15'0 0.0
2016-Apr-21 08:32N 31°39' E 121°15'0 0.0
2016-Apr-21 07:32N 31°39' E 121°15'0 0.1
2016-Apr-21 06:33N 31°39' E 121°15'0 0.0
2016-Apr-21 05:28N 31°39' E 121°15'0 0.0
2016-Apr-21 04:23N 31°39' E 121°15'0 0.1
2016-Apr-21 03:23N 31°39' E 121°15'0 0.1
2016-Apr-21 02:24N 31°39' E 121°15'0 0.0
2016-Apr-21 01:24N 31°39' E 121°15'0 0.0
2016-Apr-21 00:28N 31°39' E 121°15'0 0.0
2016-Apr-20 23:26N 31°39' E 121°15'0 0.0
2016-Apr-20 22:29N 31°39' E 121°15'0 0.0
2016-Apr-20 21:24N 31°39' E 121°15'0 0.0
2016-Apr-20 19:11N 31°39' E 121°15'0 0.1
2016-Apr-20 18:23N 31°39' E 121°15'0 0.1
2016-Apr-20 17:30N 31°39' E 121°15'0 0.0
2016-Apr-20 16:24N 31°39' E 121°15'0 0.0
2016-Apr-20 15:25N 31°39' E 121°15'0 0.1
2016-Apr-20 14:32N 31°39' E 121°15'0 0.1
2016-Apr-20 13:26N 31°39' E 121°15'0 0.0
2016-Apr-20 12:21N 31°39' E 121°15'0 0.0
2016-Apr-20 11:16N 31°39' E 121°15'0 0.0
2016-Apr-20 09:17N 31°39' E 121°15'0 0.0
2016-Apr-20 08:21N 31°39' E 121°15'0 0.0
2016-Apr-20 07:30N 31°39' E 121°15'0 0.1
2016-Apr-20 06:19N 31°39' E 121°15'0 0.1
2016-Apr-20 05:33N 31°39' E 121°15'0 0.0
2016-Apr-20 03:25N 31°39' E 121°15'0 0.0
2016-Apr-20 02:32N 31°39' E 121°15'0 0.2
2016-Apr-20 01:30N 31°39' E 121°15'0 0.0
2016-Apr-20 00:27N 31°39' E 121°15'0 0.0
2016-Apr-19 23:31N 31°39' E 121°15'0 0.0
2016-Apr-19 22:32N 31°39' E 121°15'0 0.0
2016-Apr-19 21:32N 31°39' E 121°15'0 0.0
2016-Apr-19 20:33N 31°39' E 121°15'0 0.1
2016-Apr-19 19:10N 31°39' E 121°15'0 0.2
2016-Apr-19 18:28N 31°39' E 121°15'0 0.0
2016-Apr-19 17:20N 31°39' E 121°15'0 0.0
2016-Apr-19 16:24N 31°39' E 121°15'0 0.0
2016-Apr-19 15:24N 31°39' E 121°15'0 0.0
2016-Apr-19 14:31N 31°39' E 121°15'0 0.0
2016-Apr-19 13:31N 31°39' E 121°15'0 0.2
2016-Apr-19 12:29N 31°39' E 121°15'0 0.1
2016-Apr-19 11:27N 31°39' E 121°15'0 0.0
2016-Apr-19 10:22N 31°39' E 121°15'0 0.0
2016-Apr-19 09:22N 31°39' E 121°15'0 0.0
2016-Apr-19 08:17N 31°39' E 121°15'0 0.1
2016-Apr-19 07:23N 31°39' E 121°15'0 0.1
2016-Apr-19 06:18N 31°39' E 121°15'0 0.0
2016-Apr-19 05:28N 31°39' E 121°15'0 0.1
2016-Apr-19 04:31N 31°39' E 121°15'0 0.1
2016-Apr-19 03:32N 31°39' E 121°15'0 0.0
2016-Apr-19 02:33N 31°39' E 121°15'0 0.0
2016-Apr-19 01:27N 31°39' E 121°15'0 0.2
2016-Apr-19 00:28N 31°39' E 121°15'0 0.0
2016-Apr-18 23:22N 31°39' E 121°15'0 0.1
2016-Apr-18 22:23N 31°39' E 121°15'0 0.1
2016-Apr-18 21:24N 31°39' E 121°15'0 0.0
2016-Apr-18 20:18N 31°39' E 121°15'0 0.0
2016-Apr-18 19:28N 31°39' E 121°15'0 0.0
2016-Apr-18 18:32N 31°39' E 121°15'0 0.2
2016-Apr-18 17:26N 31°39' E 121°15'0 0.0
2016-Apr-18 16:33N 31°39' E 121°15'0 0.0
2016-Apr-18 15:27N 31°39' E 121°15'0 0.0
2016-Apr-18 14:31N 31°39' E 121°15'0 0.1
2016-Apr-18 13:32N 31°39' E 121°15'0 0.1
2016-Apr-18 12:26N 31°39' E 121°15'0 0.0
2016-Apr-18 11:30N 31°39' E 121°15'0 0.0
2016-Apr-18 10:31N 31°39' E 121°15'0 0.0
2016-Apr-18 09:31N 31°39' E 121°15'0 0.0
2016-Apr-18 08:17N 31°39' E 121°15'0 0.0
2016-Apr-18 07:32N 31°39' E 121°15'0 0.0
2016-Apr-18 06:33N 31°39' E 121°15'0 0.1
2016-Apr-18 05:28N 31°39' E 121°15'0 0.1
2016-Apr-18 04:28N 31°39' E 121°15'0 0.0
2016-Apr-18 03:28N 31°39' E 121°15'5 5.2
2016-Apr-18 02:28N 31°35' E 121°18'9 9.5
2016-Apr-18 01:33N 31°29' E 121°26'8 7.6
2016-Apr-18 00:30N 31°24' E 121°33'11 7.8
2016-Apr-17 23:09N 31°18' E 121°43'6 9.5
2016-Apr-17 22:33N 31°14' E 121°48'9 8.8
2016-Apr-17 21:31N 31°08' E 121°56'  
Track history (hours):
 
Tides and Currents Weather Stations Pressure Air Temp Water Temp Dewpoint Dewpoint Depression Visibility Wind Speed Wind Dir Waves Ship Positions

Volga-4011

Last reported at 2016-Apr-26 10:07 UTC. Time now 2016-Apr-29 08:13 UTC.
Position N 31°07' E 121°56'.

Length 140 m; draft 3.6 m.

Type: Cargo ship. MMSI: 273358200.

Date/timePositionNaut miles runAvg speedWind from/ knotsBaromVisibWave heightAir tempDewpointWater temp
2016-Apr-26 10:07N 31°07' E 121°56'711.9
2016-Apr-26 09:33N 31°12' E 121°50'1110.5
2016-Apr-26 08:29N 31°20' E 121°41'8 9.1
2016-Apr-26 07:33N 31°24' E 121°32'7 7.2
2016-Apr-26 06:33N 31°29' E 121°26'8 7.6
2016-Apr-26 05:34N 31°33' E 121°19'1010.1
2016-Apr-26 04:33N 31°41' E 121°11'2 1.8
2016-Apr-26 03:32N 31°42' E 121°09'0 0.0
2016-Apr-26 02:30N 31°42' E 121°09'0 0.0
2016-Apr-26 01:33N 31°42' E 121°09'0 0.0
2016-Apr-26 00:28N 31°42' E 121°09'0 0.0
2016-Apr-25 23:32N 31°42' E 121°09'0 0.0
2016-Apr-25 22:29N 31°42' E 121°09'0 0.0
2016-Apr-25 21:15N 31°42' E 121°09'0 0.0
2016-Apr-25 20:31N 31°42' E 121°09'0 0.0
2016-Apr-25 19:31N 31°42' E 121°09'0 0.0
2016-Apr-25 18:32N 31°42' E 121°09'0 0.0
2016-Apr-25 17:33N 31°42' E 121°09'0 0.0
2016-Apr-25 16:33N 31°42' E 121°09'0 0.0
2016-Apr-25 15:22N 31°42' E 121°09'0 0.0
2016-Apr-25 14:23N 31°42' E 121°09'0 0.0
2016-Apr-25 13:12N 31°42' E 121°09'0 0.0
2016-Apr-25 12:33N 31°42' E 121°09'0 0.0
2016-Apr-25 11:31N 31°42' E 121°09'0 0.0
2016-Apr-25 10:31N 31°42' E 121°09'0 0.0
2016-Apr-25 09:26N 31°42' E 121°09'0 0.0
2016-Apr-25 08:03N 31°42' E 121°09'0 0.0
2016-Apr-25 07:30N 31°42' E 121°09'0 0.0
2016-Apr-25 06:28N 31°42' E 121°09'0 0.0
2016-Apr-25 05:29N 31°42' E 121°09'0 0.0
2016-Apr-25 04:17N 31°42' E 121°09'0 0.0
2016-Apr-25 03:30N 31°42' E 121°09'0 0.0
2016-Apr-25 02:30N 31°42' E 121°09'2 2.2
2016-Apr-25 01:33N 31°41' E 121°11'4 4.0
2016-Apr-25 00:32N 31°39' E 121°15'0 0.0
2016-Apr-24 23:32N 31°39' E 121°15'0 0.0
2016-Apr-24 22:33N 31°39' E 121°15'0 0.0
2016-Apr-24 21:31N 31°39' E 121°15'0 0.2
2016-Apr-24 20:28N 31°39' E 121°15'0 0.1
2016-Apr-24 19:32N 31°39' E 121°15'0 0.0
2016-Apr-24 18:33N 31°39' E 121°15'0 0.0
2016-Apr-24 17:30N 31°39' E 121°15'0 0.0
2016-Apr-24 16:31N 31°39' E 121°15'0 0.2
2016-Apr-24 15:32N 31°39' E 121°15'0 0.0
2016-Apr-24 14:32N 31°39' E 121°15'0 0.0
2016-Apr-24 13:33N 31°39' E 121°15'0 0.0
2016-Apr-24 12:33N 31°39' E 121°15'0 0.0
2016-Apr-24 11:31N 31°39' E 121°15'0 0.0
2016-Apr-24 10:32N 31°39' E 121°15'0 0.0
2016-Apr-24 09:29N 31°39' E 121°15'0 0.0
2016-Apr-24 08:33N 31°39' E 121°15'0 0.1
2016-Apr-24 07:31N 31°39' E 121°15'0 0.0
2016-Apr-24 06:30N 31°39' E 121°15'0 0.0
2016-Apr-24 05:31N 31°39' E 121°15'0 0.0
2016-Apr-24 04:32N 31°39' E 121°15'0 0.2
2016-Apr-24 03:32N 31°39' E 121°15'0 0.0
2016-Apr-24 02:33N 31°39' E 121°15'0 0.0
2016-Apr-24 01:33N 31°39' E 121°15'0 0.0
2016-Apr-24 00:28N 31°39' E 121°15'0 0.0
2016-Apr-23 23:32N 31°39' E 121°15'0 0.0
2016-Apr-23 22:32N 31°39' E 121°15'0 0.0
2016-Apr-23 21:30N 31°39' E 121°15'0 0.1
2016-Apr-23 20:31N 31°39' E 121°15'0 0.1
2016-Apr-23 19:31N 31°39' E 121°15'0 0.0
2016-Apr-23 18:32N 31°39' E 121°15'0 0.0
2016-Apr-23 17:33N 31°39' E 121°15'0 0.0
2016-Apr-23 16:33N 31°39' E 121°15'0 0.1
2016-Apr-23 15:31N 31°39' E 121°15'0 0.1
2016-Apr-23 14:26N 31°39' E 121°15'0 0.0
2016-Apr-23 13:29N 31°39' E 121°15'0 0.0
2016-Apr-23 12:33N 31°39' E 121°15'0 0.0
2016-Apr-23 11:31N 31°39' E 121°15'0 0.0
2016-Apr-23 10:31N 31°39' E 121°15'0 0.1
2016-Apr-23 09:32N 31°39' E 121°15'0 0.1
2016-Apr-23 08:27N 31°39' E 121°15'0 0.1
2016-Apr-23 07:33N 31°39' E 121°15'0 0.0
2016-Apr-23 06:28N 31°39' E 121°15'0 0.0
2016-Apr-23 05:31N 31°39' E 121°15'0 0.0
2016-Apr-23 04:26N 31°39' E 121°15'0 0.0
2016-Apr-23 03:27N 31°39' E 121°15'0 0.2
2016-Apr-23 02:33N 31°39' E 121°15'0 0.0
2016-Apr-23 01:31N 31°39' E 121°15'0 0.0
2016-Apr-23 00:32N 31°39' E 121°15'0 0.0
2016-Apr-22 23:32N 31°39' E 121°15'0 0.0
2016-Apr-22 22:33N 31°39' E 121°15'0 0.0
2016-Apr-22 21:31N 31°39' E 121°15'0 0.2
2016-Apr-22 20:28N 31°39' E 121°15'0 0.1
2016-Apr-22 19:29N 31°39' E 121°15'0 0.0
2016-Apr-22 18:33N 31°39' E 121°15'0 0.0
2016-Apr-22 17:30N 31°39' E 121°15'0 0.0
2016-Apr-22 16:31N 31°39' E 121°15'1 0.8
2016-Apr-22 15:33N 31°39' E 121°14'5 4.2
2016-Apr-22 14:16N 31°42' E 121°09'0 0.0
2016-Apr-22 13:32N 31°42' E 121°09'0 0.0
2016-Apr-22 12:33N 31°42' E 121°09'0 0.0
2016-Apr-22 11:33N 31°42' E 121°09'0 0.0
2016-Apr-22 10:28N 31°42' E 121°09'0 0.0
2016-Apr-22 09:26N 31°42' E 121°09'0 0.0
2016-Apr-22 08:29N 31°42' E 121°09'0 0.0
2016-Apr-22 07:30N 31°42' E 121°09'0 0.0
2016-Apr-22 06:31N 31°42' E 121°09'0 0.0
2016-Apr-22 05:31N 31°42' E 121°09'0 0.0
2016-Apr-22 04:32N 31°42' E 121°09'0 0.0
2016-Apr-22 02:31N 31°42' E 121°09'0 0.0
2016-Apr-21 23:33N 31°42' E 121°09'0 0.0
2016-Apr-21 22:25N 31°42' E 121°09'0 0.0
2016-Apr-21 21:20N 31°42' E 121°09'0 0.0
2016-Apr-21 20:15N 31°42' E 121°09'0 0.0
2016-Apr-21 17:28N 31°42' E 121°09'0 0.0
2016-Apr-21 16:23N 31°42' E 121°09'0 0.0
2016-Apr-21 15:33N 31°42' E 121°09'2 1.6
2016-Apr-21 14:33N 31°41' E 121°11'4 3.5
2016-Apr-21 13:20N 31°39' E 121°15'0 0.0
2016-Apr-21 12:14N 31°39' E 121°15'0 0.0
2016-Apr-21 11:21N 31°39' E 121°15'0 0.0
2016-Apr-21 10:31N 31°39' E 121°15'0 0.0
2016-Apr-21 09:07N 31°39' E 121°15'0 0.0
2016-Apr-21 08:32N 31°39' E 121°15'0 0.0
2016-Apr-21 07:32N 31°39' E 121°15'0 0.1
2016-Apr-21 06:33N 31°39' E 121°15'0 0.0
2016-Apr-21 05:28N 31°39' E 121°15'0 0.0
2016-Apr-21 04:23N 31°39' E 121°15'0 0.1
2016-Apr-21 03:23N 31°39' E 121°15'0 0.1
2016-Apr-21 02:24N 31°39' E 121°15'0 0.0
2016-Apr-21 01:24N 31°39' E 121°15'0 0.0
2016-Apr-21 00:28N 31°39' E 121°15'0 0.0
2016-Apr-20 23:26N 31°39' E 121°15'0 0.0
2016-Apr-20 22:29N 31°39' E 121°15'0 0.0
2016-Apr-20 21:24N 31°39' E 121°15'0 0.0
2016-Apr-20 19:11N 31°39' E 121°15'0 0.1
2016-Apr-20 18:23N 31°39' E 121°15'0 0.1
2016-Apr-20 17:30N 31°39' E 121°15'0 0.0
2016-Apr-20 16:24N 31°39' E 121°15'0 0.0
2016-Apr-20 15:25N 31°39' E 121°15'0 0.1
2016-Apr-20 14:32N 31°39' E 121°15'0 0.1
2016-Apr-20 13:26N 31°39' E 121°15'0 0.0
2016-Apr-20 12:21N 31°39' E 121°15'0 0.0
2016-Apr-20 11:16N 31°39' E 121°15'0 0.0
2016-Apr-20 09:17N 31°39' E 121°15'0 0.0
2016-Apr-20 08:21N 31°39' E 121°15'0 0.0
2016-Apr-20 07:30N 31°39' E 121°15'0 0.1
2016-Apr-20 06:19N 31°39' E 121°15'0 0.1
2016-Apr-20 05:33N 31°39' E 121°15'0 0.0
2016-Apr-20 03:25N 31°39' E 121°15'0 0.0
2016-Apr-20 02:32N 31°39' E 121°15'0 0.2
2016-Apr-20 01:30N 31°39' E 121°15'0 0.0
2016-Apr-20 00:27N 31°39' E 121°15'0 0.0
2016-Apr-19 23:31N 31°39' E 121°15'0 0.0
2016-Apr-19 22:32N 31°39' E 121°15'0 0.0
2016-Apr-19 21:32N 31°39' E 121°15'0 0.0
2016-Apr-19 20:33N 31°39' E 121°15'0 0.1
2016-Apr-19 19:10N 31°39' E 121°15'0 0.2
2016-Apr-19 18:28N 31°39' E 121°15'0 0.0
2016-Apr-19 17:20N 31°39' E 121°15'0 0.0
2016-Apr-19 16:24N 31°39' E 121°15'0 0.0
2016-Apr-19 15:24N 31°39' E 121°15'0 0.0
2016-Apr-19 14:31N 31°39' E 121°15'0 0.0
2016-Apr-19 13:31N 31°39' E 121°15'0 0.2
2016-Apr-19 12:29N 31°39' E 121°15'0 0.1
2016-Apr-19 11:27N 31°39' E 121°15'0 0.0
2016-Apr-19 10:22N 31°39' E 121°15'0 0.0
2016-Apr-19 09:22N 31°39' E 121°15'0 0.0
2016-Apr-19 08:17N 31°39' E 121°15'0 0.1
2016-Apr-19 07:23N 31°39' E 121°15'0 0.1
2016-Apr-19 06:18N 31°39' E 121°15'0 0.0
2016-Apr-19 05:28N 31°39' E 121°15'0 0.1
2016-Apr-19 04:31N 31°39' E 121°15'0 0.1
2016-Apr-19 03:32N 31°39' E 121°15'0 0.0
2016-Apr-19 02:33N 31°39' E 121°15'0 0.0
2016-Apr-19 01:27N 31°39' E 121°15'0 0.2
2016-Apr-19 00:28N 31°39' E 121°15'0 0.0
2016-Apr-18 23:22N 31°39' E 121°15'0 0.1
2016-Apr-18 22:23N 31°39' E 121°15'0 0.1
2016-Apr-18 21:24N 31°39' E 121°15'0 0.0
2016-Apr-18 20:18N 31°39' E 121°15'0 0.0
2016-Apr-18 19:28N 31°39' E 121°15'0 0.0
2016-Apr-18 18:32N 31°39' E 121°15'0 0.2
2016-Apr-18 17:26N 31°39' E 121°15'0 0.0
2016-Apr-18 16:33N 31°39' E 121°15'0 0.0
2016-Apr-18 15:27N 31°39' E 121°15'0 0.0
2016-Apr-18 14:31N 31°39' E 121°15'0 0.1
2016-Apr-18 13:32N 31°39' E 121°15'0 0.1
2016-Apr-18 12:26N 31°39' E 121°15'0 0.0
2016-Apr-18 11:30N 31°39' E 121°15'0 0.0
2016-Apr-18 10:31N 31°39' E 121°15'0 0.0
2016-Apr-18 09:31N 31°39' E 121°15'0 0.0
2016-Apr-18 08:17N 31°39' E 121°15'0 0.0
2016-Apr-18 07:32N 31°39' E 121°15'0 0.0
2016-Apr-18 06:33N 31°39' E 121°15'0 0.1
2016-Apr-18 05:28N 31°39' E 121°15'0 0.1
2016-Apr-18 04:28N 31°39' E 121°15'0 0.0
2016-Apr-18 03:28N 31°39' E 121°15'5 5.2
2016-Apr-18 02:28N 31°35' E 121°18'9 9.5
2016-Apr-18 01:33N 31°29' E 121°26'8 7.6
2016-Apr-18 00:30N 31°24' E 121°33'11 7.8
2016-Apr-17 23:09N 31°18' E 121°43'6 9.5
2016-Apr-17 22:33N 31°14' E 121°48'9 8.8
2016-Apr-17 21:31N 31°08' E 121°56'  

Dump ship's entire track history